.
WxDataArchive / Data Records for 2014-02-07
2014-02-06 February 2014 2014-02-08

Data Records for Friday, 07 February 2014

Time	Temp	Chill	HIndex	Humid	Dewpt	 Wind 	HiWind	WindDir	Rain 	Barom 
-----	----	-----	------	-----	-----	------	------	-------	-----	----- 
00:00	-3.3	-3.3	-3.3	68	-11.2	0	2	248	0.00	30.445 
00:05	-3.3	-3.3	-3.3	68	-11.2	1	2	248	0.00	30.445 
00:10	-3.5	-3.5	-3.5	68	-11.4	0	1	248	0.00	30.445 
00:15	-3.5	-3.5	-3.5	68	-11.4	0	2	248	0.00	30.448 
00:20	-3.5	-3.5	-3.5	68	-11.4	0	2	248	0.00	30.448 
00:25	-3.5	-3.5	-3.5	68	-11.4	0	2	248	0.00	30.448 
00:30	-3.5	-3.5	-3.5	68	-11.4	1	3	248	0.00	30.449 
00:35	-3.5	-3.5	-3.5	68	-11.4	0	2	248	0.00	30.449 
00:40	-3.5	-3.5	-3.5	68	-11.4	0	2	248	0.00	30.449 
00:45	-3.5	-3.5	-3.5	68	-11.4	0	2	248	0.00	30.439 
00:50	-3.5	-3.5	-3.5	68	-11.4	0	1	248	0.00	30.439 
00:55	-3.5	-3.5	-3.5	68	-11.4	0	1	248	0.00	30.439 
01:00	-3.7	-3.7	-3.7	68	-11.6	0	1	248	0.00	30.433 
01:05	-3.7	-3.7	-3.7	68	-11.6	0	1	248	0.00	30.433 
01:10	-3.7	-3.7	-3.7	68	-11.6	0	0	---	0.00	30.433 
01:15	-3.9	-3.9	-3.9	68	-11.8	0	1	248	0.00	30.432 
01:20	-3.9	-3.9	-3.9	68	-11.8	0	1	248	0.00	30.432 
01:25	-4.1	-4.1	-4.1	68	-11.9	0	1	248	0.00	30.432 
01:30	-4.1	-4.1	-4.1	68	-11.9	0	1	248	0.00	30.431 
01:35	-4.1	-4.1	-4.1	69	-11.7	0	2	248	0.00	30.431 
01:40	-4.1	-4.1	-4.1	69	-11.7	0	1	248	0.00	30.431 
01:45	-4.1	-4.1	-4.1	69	-11.7	0	1	248	0.00	30.426 
01:50	-4.1	-4.1	-4.1	69	-11.7	0	2	248	0.00	30.426 
01:55	-4.1	-4.1	-4.1	69	-11.7	0	1	248	0.00	30.426 
02:00	-4.3	-4.3	-4.3	69	-11.8	0	2	248	0.00	30.429 
02:05	-4.1	-4.1	-4.1	69	-11.7	0	1	248	0.00	30.429 
02:10	-4.3	-4.3	-4.3	69	-11.8	0	1	248	0.00	30.429 
02:15	-4.3	-4.3	-4.3	69	-11.8	0	2	248	0.00	30.434 
02:20	-4.3	-4.3	-4.3	69	-11.8	0	2	248	0.00	30.434 
02:25	-4.3	-4.3	-4.3	69	-11.8	0	1	248	0.00	30.434 
02:30	-4.3	-4.3	-4.3	69	-11.8	0	1	248	0.00	30.430 
02:35	-4.3	-4.3	-4.3	69	-11.8	0	1	248	0.00	30.430 
02:40	-4.3	-4.3	-4.3	69	-11.8	0	2	248	0.00	30.430 
02:45	-4.6	-4.6	-4.6	69	-12.1	0	1	248	0.00	30.430 
02:50	-4.6	-4.6	-4.6	69	-12.1	0	1	248	0.00	30.430 
02:55	-4.6	-4.6	-4.6	69	-12.1	0	1	248	0.00	30.430 
03:00	-4.6	-4.6	-4.6	70	-11.9	0	1	248	0.00	30.436 
03:05	-4.6	-4.6	-4.6	70	-11.9	0	1	248	0.00	30.436 
03:10	-4.6	-4.6	-4.6	70	-11.9	0	2	248	0.00	30.436 
03:15	-4.6	-4.6	-4.6	70	-11.9	0	2	248	0.00	30.435 
03:20	-4.6	-4.6	-4.6	70	-11.9	0	0	---	0.00	30.435 
03:25	-4.8	-4.8	-4.8	70	-12.0	0	1	248	0.00	30.435 
03:30	-4.8	-4.8	-4.8	70	-12.0	0	1	248	0.00	30.433 
03:35	-4.8	-4.8	-4.8	70	-12.0	0	2	248	0.00	30.433 
03:40	-4.8	-4.8	-4.8	70	-12.0	0	2	248	0.00	30.433 
03:45	-4.8	-4.8	-4.8	70	-12.0	0	1	248	0.00	30.436 
03:50	-4.8	-4.8	-4.8	70	-12.0	0	1	248	0.00	30.436 
03:55	-5.0	-5.0	-5.0	70	-12.2	0	2	248	0.00	30.436 
04:00	-5.0	-5.0	-5.0	70	-12.2	0	2	248	0.00	30.442 
04:05	-5.0	-5.0	-5.0	71	-12.0	0	1	248	0.00	30.442 
04:10	-5.0	-5.0	-5.0	71	-12.0	0	1	248	0.00	30.442 
04:15	-5.0	-5.0	-5.0	71	-12.0	0	1	248	0.00	30.434 
04:20	-5.2	-5.2	-5.2	71	-12.1	0	1	248	0.00	30.434 
04:25	-5.0	-5.0	-5.0	71	-12.0	0	2	248	0.00	30.434 
04:30	-5.0	-5.0	-5.0	71	-12.0	0	1	248	0.00	30.435 
04:35	-5.0	-5.0	-5.0	71	-12.0	0	2	248	0.00	30.435 
04:40	-5.0	-5.0	-5.0	71	-12.0	0	1	248	0.00	30.435 
04:45	-5.0	-5.0	-5.0	71	-12.0	0	2	248	0.00	30.435 
04:50	-5.0	-5.0	-5.0	71	-12.0	0	2	248	0.00	30.435 
04:55	-5.2	-5.2	-5.2	71	-12.1	0	2	248	0.00	30.435 
05:00	-5.2	-5.2	-5.2	71	-12.1	0	1	248	0.00	30.428 
05:05	-5.2	-5.2	-5.2	71	-12.1	0	1	248	0.00	30.428 
05:10	-5.4	-5.4	-5.4	71	-12.3	0	1	248	0.00	30.428 
05:15	-5.4	-5.4	-5.4	71	-12.3	0	1	248	0.00	30.425 
05:20	-5.6	-5.6	-5.6	71	-12.5	0	1	248	0.00	30.425 
05:25	-5.6	-5.6	-5.6	72	-12.3	0	3	248	0.00	30.425 
05:30	-5.6	-5.6	-5.6	72	-12.3	0	2	248	0.00	30.426 
05:35	-5.6	-5.6	-5.6	72	-12.3	0	4	248	0.00	30.426 
05:40	-5.4	-5.4	-5.4	72	-12.1	0	2	248	0.00	30.426 
05:45	-5.4	-5.4	-5.4	72	-12.1	0	1	248	0.00	30.436 
05:50	-5.6	-5.6	-5.6	72	-12.3	0	0	---	0.00	30.436 
05:55	-5.6	-5.6	-5.6	72	-12.3	0	1	248	0.00	30.436 
06:00	-5.9	-5.9	-5.9	72	-12.5	0	0	---	0.00	30.436 
06:05	-5.9	-5.9	-5.9	72	-12.5	0	1	248	0.00	30.436 
06:10	-6.1	-6.1	-6.1	72	-12.7	0	1	248	0.00	30.436 
06:15	-6.1	-6.1	-6.1	72	-12.7	0	1	248	0.00	30.438 
06:20	-6.1	-6.1	-6.1	72	-12.7	0	1	248	0.00	30.438 
06:25	-6.1	-6.1	-6.1	73	-12.5	0	1	248	0.00	30.438 
06:30	-6.1	-6.1	-6.1	73	-12.5	0	1	248	0.00	30.439 
06:35	-6.1	-6.1	-6.1	73	-12.5	0	1	248	0.00	30.439 
06:40	-6.1	-6.1	-6.1	73	-12.5	0	1	248	0.00	30.439 
06:45	-6.1	-6.1	-6.1	73	-12.5	0	1	248	0.00	30.437 
06:50	-5.9	-5.9	-5.9	73	-12.3	0	0	---	0.00	30.437 
06:55	-5.9	-5.9	-5.9	73	-12.3	0	0	---	0.00	30.437 
07:00	-5.9	-5.9	-5.9	73	-12.3	0	1	248	0.00	30.440 
07:05	-5.9	-5.9	-5.9	73	-12.3	0	0	---	0.00	30.440 
07:10	-5.9	-5.9	-5.9	73	-12.3	0	1	248	0.00	30.440 
07:15	-5.9	-5.9	-5.9	73	-12.3	0	2	248	0.00	30.446 
07:20	-5.9	-5.9	-5.9	73	-12.3	0	0	---	0.00	30.446 
07:25	-5.9	-5.9	-5.9	73	-12.3	0	1	248	0.00	30.446 
07:30	-5.9	-5.9	-5.9	73	-12.3	0	2	248	0.00	30.448 
07:35	-5.6	-5.6	-5.6	73	-12.0	0	1	248	0.00	30.448 
07:40	-5.6	-5.6	-5.6	73	-12.0	0	1	248	0.00	30.448 
07:45	-5.6	-5.6	-5.6	73	-12.0	0	2	248	0.00	30.449 
07:50	-5.6	-5.6	-5.6	73	-12.0	0	1	248	0.00	30.449 
07:55	-5.6	-5.6	-5.6	73	-12.0	0	2	248	0.00	30.449 
08:00	-5.9	-5.9	-5.9	73	-12.3	0	1	248	0.00	30.454 
08:05	-5.9	-5.9	-5.9	73	-12.3	0	1	248	0.00	30.454 
08:10	-5.9	-5.9	-5.9	73	-12.3	0	2	248	0.00	30.454 
08:15	-5.9	-5.9	-5.9	73	-12.3	0	2	248	0.00	30.461 
08:20	-5.6	-5.6	-5.6	73	-12.0	0	2	248	0.00	30.461 
08:25	-5.4	-5.4	-5.4	73	-11.8	0	2	248	0.00	30.461 
08:30	-5.0	-5.0	-5.0	73	-11.4	0	2	248	0.00	30.470 
08:35	-4.3	-4.3	-4.3	73	-10.7	0	1	248	0.00	30.470 
08:40	-4.1	-4.1	-4.1	73	-10.5	0	2	248	0.00	30.470 
08:45	-3.7	-3.7	-3.7	72	-10.4	0	1	248	0.00	30.474 
08:50	-3.5	-3.5	-3.5	72	-10.2	0	1	248	0.00	30.474 
08:55	-3.3	-3.3	-3.3	71	-10.3	1	3	248	0.00	30.474 
09:00	-3.1	-3.1	-3.1	71	-10.1	0	2	248	0.00	30.475 
09:05	-2.6	-2.6	-2.6	70	-9.9	0	2	248	0.00	30.475 
09:10	-2.2	-2.2	-2.2	70	-9.5	0	2	248	0.00	30.475 
09:15	-1.8	-1.8	-1.8	69	-9.4	0	2	248	0.00	30.480 
09:20	-1.6	-1.6	-1.6	69	-9.3	0	2	248	0.00	30.480 
09:25	-1.4	-1.4	-1.4	69	-9.1	0	2	248	0.00	30.480 
09:30	-1.0	-1.0	-1.0	68	-9.0	0	2	248	0.00	30.480 
09:35	-0.8	-0.8	-0.8	67	-9.1	1	3	248	0.00	30.480 
09:40	-0.4	-0.4	-0.4	67	-8.7	0	2	248	0.00	30.480 
09:45	0.1	0.1	0.1	67	-8.2	0	2	248	0.00	30.478 
09:50	0.5	0.5	0.5	66	-8.1	1	3	248	0.00	30.478 
09:55	0.9	0.9	0.9	65	-8.1	1	3	248	0.00	30.478 
10:00	1.3	1.3	1.3	65	-7.7	1	4	248	0.00	30.480 
10:05	1.7	1.7	1.7	65	-7.3	1	3	248	0.00	30.480 
10:10	2.4	2.4	2.4	65	-6.6	1	4	248	0.00	30.480 
10:15	2.8	2.8	2.8	64	-6.6	1	4	248	0.00	30.480 
10:20	3.4	3.4	3.4	64	-6.0	0	2	248	0.00	30.480 
10:25	3.5	3.5	3.5	63	-6.2	1	4	248	0.00	30.480 
10:30	3.7	3.7	3.7	62	-6.4	1	3	270	0.00	30.481 
10:35	4.1	4.1	4.1	62	-6.0	0	4	248	0.00	30.481 
10:40	4.5	4.5	4.5	62	-5.6	1	4	248	0.00	30.481 
10:45	4.7	4.7	4.7	62	-5.4	1	2	248	0.00	30.480 
10:50	5.0	5.0	5.0	61	-5.5	1	4	248	0.00	30.480 
10:55	5.0	5.0	5.0	61	-5.5	2	5	270	0.00	30.480 
11:00	5.2	5.2	5.2	61	-5.3	1	5	248	0.00	30.480 
11:05	5.6	5.6	5.6	60	-5.2	1	3	248	0.00	30.480 
11:10	6.0	6.0	6.0	60	-4.9	1	3	248	0.00	30.480 
11:15	6.0	6.0	6.0	60	-4.9	1	3	248	0.00	30.480 
11:20	6.1	6.1	6.1	59	-5.1	2	4	270	0.00	30.480 
11:25	6.3	6.3	6.3	59	-4.9	1	5	270	0.00	30.480 
11:30	6.5	6.5	6.5	59	-4.7	1	4	248	0.00	30.475 
11:35	6.7	6.7	6.7	59	-4.5	1	4	248	0.00	30.475 
11:40	6.9	6.9	6.9	59	-4.4	1	3	248	0.00	30.475 
11:45	7.0	7.0	7.0	59	-4.3	1	3	248	0.00	30.473 
11:50	7.2	7.2	7.2	59	-4.1	1	4	248	0.00	30.473 
11:55	7.2	7.2	7.2	58	-4.4	2	5	270	0.00	30.473 
12:00	7.6	7.6	7.6	58	-4.1	2	7	248	0.00	30.473 
12:05	7.7	7.7	7.7	59	-3.6	1	3	270	0.00	30.473 
12:10	8.1	8.1	8.1	58	-3.6	1	3	270	0.00	30.473 
12:15	8.4	8.4	8.4	58	-3.3	1	3	270	0.00	30.466 
12:20	8.4	8.4	8.4	57	-3.7	2	3	270	0.00	30.466 
12:25	8.8	8.8	8.8	58	-2.9	1	3	270	0.00	30.466 
12:30	9.2	9.2	9.2	57	-2.9	1	4	270	0.00	30.463 
12:35	9.3	9.3	9.3	57	-2.8	1	5	270	0.00	30.463 
12:40	9.3	9.3	9.3	56	-3.2	1	5	248	0.00	30.463 
12:45	9.7	9.7	9.7	57	-2.4	1	3	248	0.00	30.456 
12:50	9.7	9.7	9.7	56	-2.8	2	5	248	0.00	30.456 
12:55	9.5	9.5	9.5	55	-3.4	2	4	270	0.00	30.456 
13:00	9.2	9.2	9.2	56	-3.3	3	7	270	0.00	30.455 
13:05	9.2	9.2	9.2	56	-3.3	3	5	270	0.00	30.455 
13:10	9.2	9.2	9.2	57	-2.9	3	6	270	0.00	30.455 
13:15	9.2	9.2	9.2	57	-2.9	2	4	270	0.00	30.449 
13:20	9.7	9.7	9.7	57	-2.4	2	4	248	0.00	30.449 
13:25	9.9	9.9	9.9	57	-2.2	1	4	270	0.00	30.449 
13:30	10.2	10.2	10.2	56	-2.3	1	4	248	0.00	30.445 
13:35	10.2	10.2	10.2	56	-2.3	2	5	270	0.00	30.445 
13:40	9.9	9.9	9.9	55	-3.0	3	6	270	0.00	30.445 
13:45	9.9	9.9	9.9	56	-2.6	2	5	292	0.00	30.444 
13:50	10.0	10.0	10.0	55	-2.9	2	6	270	0.00	30.444 
13:55	10.2	10.2	10.2	54	-3.1	3	6	248	0.00	30.444 
14:00	10.0	10.0	10.0	54	-3.3	3	6	270	0.00	30.443 
14:05	10.2	10.2	10.2	57	-2.0	2	4	248	0.00	30.443 
14:10	10.5	10.5	10.5	56	-2.1	2	4	248	0.00	30.443 
14:15	10.5	10.5	10.5	55	-2.4	2	10	248	0.00	30.438 
14:20	10.7	10.7	10.7	55	-2.2	2	4	248	0.00	30.438 
14:25	10.9	10.9	10.9	54	-2.4	2	5	270	0.00	30.438 
14:30	11.1	11.1	11.1	54	-2.3	2	5	248	0.00	30.437 
14:35	11.2	11.2	11.2	54	-2.2	2	5	270	0.00	30.437 
14:40	11.2	11.2	11.2	54	-2.2	2	4	248	0.00	30.437 
14:45	11.2	11.2	11.2	53	-2.6	2	7	248	0.00	30.438 
14:50	11.1	11.1	11.1	52	-3.0	3	6	248	0.00	30.438 
14:55	10.9	10.9	10.9	53	-2.8	3	6	248	0.00	30.438 
15:00	10.9	10.9	10.9	53	-2.8	3	9	248	0.00	30.441 
15:05	11.1	11.1	11.1	53	-2.6	2	5	248	0.00	30.441 
15:10	11.1	11.1	11.1	53	-2.6	2	7	248	0.00	30.441 
15:15	11.1	11.1	11.1	54	-2.3	1	4	248	0.00	30.438 
15:20	11.1	11.1	11.1	53	-2.6	2	4	248	0.00	30.438 
15:25	11.1	11.1	11.1	53	-2.6	2	6	270	0.00	30.438 
15:30	11.2	11.2	11.2	53	-2.6	2	7	270	0.00	30.442 
15:35	11.2	11.2	11.2	52	-3.0	2	7	270	0.00	30.442 
15:40	11.1	11.1	11.1	52	-3.0	3	7	248	0.00	30.442 
15:45	11.2	11.2	11.2	53	-2.6	1	5	248	0.00	30.438 
15:50	11.1	11.1	11.1	52	-3.0	3	5	270	0.00	30.438 
15:55	10.9	10.9	10.9	52	-3.2	2	5	270	0.00	30.438 
16:00	10.7	10.7	10.7	52	-3.4	2	6	270	0.00	30.438 
16:05	10.7	10.7	10.7	52	-3.4	2	6	270	0.00	30.438 
16:10	10.7	10.7	10.7	52	-3.4	2	6	270	0.00	30.438 
16:15	10.7	10.7	10.7	51	-3.8	2	6	270	0.00	30.430 
16:20	10.7	10.7	10.7	52	-3.4	2	7	248	0.00	30.430 
16:25	10.7	10.7	10.7	52	-3.4	2	4	270	0.00	30.430 
16:30	10.7	10.7	10.7	52	-3.4	2	5	248	0.00	30.430 
16:35	10.7	10.7	10.7	52	-3.4	1	4	248	0.00	30.430 
16:40	10.9	10.9	10.9	53	-2.8	1	3	270	0.00	30.430 
16:45	10.9	10.9	10.9	52	-3.2	1	4	248	0.00	30.430 
16:50	10.7	10.7	10.7	52	-3.4	1	4	248	0.00	30.430 
16:55	10.7	10.7	10.7	52	-3.4	2	6	248	0.00	30.430 
17:00	10.5	10.5	10.5	52	-3.6	2	6	248	0.00	30.430 
17:05	10.4	10.4	10.4	52	-3.7	2	6	270	0.00	30.430 
17:10	10.4	10.4	10.4	53	-3.3	1	4	270	0.00	30.430 
17:15	10.2	10.2	10.2	53	-3.5	1	4	270	0.00	30.431 
17:20	10.0	10.0	10.0	52	-4.1	2	5	248	0.00	30.431 
17:25	9.9	9.9	9.9	53	-3.8	1	3	248	0.00	30.431 
17:30	9.7	9.7	9.7	53	-4.0	1	3	248	0.00	30.430 
17:35	9.5	9.5	9.5	54	-3.8	1	6	248	0.00	30.430 
17:40	9.3	9.3	9.3	54	-3.9	1	4	248	0.00	30.430 
17:45	9.2	9.2	9.2	54	-4.0	0	3	248	0.00	30.433 
17:50	8.8	8.8	8.8	55	-4.0	0	2	248	0.00	30.433 
17:55	8.6	8.6	8.6	55	-4.2	1	6	248	0.00	30.433 
18:00	8.4	8.4	8.4	56	-4.0	1	6	248	0.00	30.433 
18:05	8.4	8.4	8.4	56	-4.0	1	4	248	0.00	30.433 
18:10	8.3	8.3	8.3	56	-4.1	1	3	248	0.00	30.433 
18:15	8.1	8.1	8.1	56	-4.3	1	2	248	0.00	30.436 
18:20	8.1	8.1	8.1	57	-3.9	0	3	248	0.00	30.436 
18:25	7.9	7.9	7.9	57	-4.1	0	2	248	0.00	30.436 
18:30	7.9	7.9	7.9	58	-3.8	1	3	248	0.00	30.436 
18:35	7.7	7.7	7.7	58	-4.0	0	2	248	0.00	30.436 
18:40	7.6	7.6	7.6	58	-4.1	0	2	248	0.00	30.436 
18:45	7.4	7.4	7.4	58	-4.2	0	1	248	0.00	30.440 
18:50	7.4	7.4	7.4	59	-3.9	0	1	248	0.00	30.440 
18:55	7.2	7.2	7.2	59	-4.1	0	1	248	0.00	30.440 
19:00	7.0	7.0	7.0	60	-3.9	0	1	248	0.00	30.445 
19:05	7.0	7.0	7.0	60	-3.9	0	1	248	0.00	30.445 
19:10	7.0	7.0	7.0	60	-3.9	0	2	248	0.00	30.445 
19:15	7.0	7.0	7.0	60	-3.9	0	2	248	0.00	30.442 
19:20	6.9	6.9	6.9	60	-4.0	0	0	---	0.00	30.442 
19:25	6.5	6.5	6.5	60	-4.4	0	0	---	0.00	30.442 
19:30	6.1	6.1	6.1	60	-4.8	0	0	---	0.00	30.437 
19:35	5.8	5.8	5.8	61	-4.7	0	0	---	0.00	30.437 
19:40	5.2	5.2	5.2	61	-5.3	0	0	---	0.00	30.437 
19:45	4.8	4.8	4.8	62	-5.3	0	0	---	0.00	30.439 
19:50	4.7	4.7	4.7	62	-5.4	0	0	---	0.00	30.439 
19:55	4.3	4.3	4.3	63	-5.5	0	0	---	0.00	30.439 
20:00	3.9	3.9	3.9	63	-5.8	0	0	---	0.00	30.438 
20:05	3.7	3.7	3.7	64	-5.7	0	1	248	0.00	30.438 
20:10	3.7	3.7	3.7	65	-5.4	0	0	---	0.00	30.438 
20:15	3.9	3.9	3.9	65	-5.2	0	1	248	0.00	30.436 
20:20	4.1	4.1	4.1	66	-4.7	0	1	248	0.00	30.436 
20:25	4.3	4.3	4.3	66	-4.5	0	1	248	0.00	30.436 
20:30	4.5	4.5	4.5	66	-4.3	0	1	248	0.00	30.433 
20:35	4.5	4.5	4.5	66	-4.3	0	1	248	0.00	30.433 
20:40	4.5	4.5	4.5	66	-4.3	0	0	---	0.00	30.433 
20:45	4.3	4.3	4.3	65	-4.8	0	0	---	0.00	30.431 
20:50	4.3	4.3	4.3	66	-4.5	0	1	248	0.00	30.431 
20:55	4.3	4.3	4.3	66	-4.5	0	0	---	0.00	30.431 
21:00	4.1	4.1	4.1	66	-4.7	0	0	---	0.00	30.433 
21:05	3.9	3.9	3.9	66	-4.9	0	1	248	0.00	30.433 
21:10	3.7	3.7	3.7	66	-5.1	0	0	---	0.00	30.433 
21:15	3.5	3.5	3.5	66	-5.3	0	0	---	0.00	30.425 
21:20	3.4	3.4	3.4	66	-5.4	0	0	---	0.00	30.425 
21:25	3.2	3.2	3.2	67	-5.2	0	0	---	0.00	30.425 
21:30	2.8	2.8	2.8	67	-5.6	0	0	---	0.00	30.426 
21:35	2.6	2.6	2.6	67	-5.8	0	0	---	0.00	30.426 
21:40	2.2	2.2	2.2	68	-5.9	0	0	---	0.00	30.426 
21:45	2.0	2.0	2.0	68	-6.1	0	0	---	0.00	30.432 
21:50	1.8	1.8	1.8	68	-6.3	0	0	---	0.00	30.432 
21:55	1.5	1.5	1.5	69	-6.3	0	0	---	0.00	30.432 
22:00	1.3	1.3	1.3	69	-6.5	0	0	---	0.00	30.432 
22:05	1.3	1.3	1.3	70	-6.2	0	0	---	0.00	30.432 
22:10	1.3	1.3	1.3	71	-5.9	0	0	---	0.00	30.432 
22:15	1.7	1.7	1.7	71	-5.5	0	1	248	0.00	30.426 
22:20	2.0	2.0	2.0	72	-4.9	0	0	---	0.00	30.426 
22:25	2.4	2.4	2.4	72	-4.5	0	1	248	0.00	30.426 
22:30	3.0	3.0	3.0	72	-3.9	0	0	---	0.00	30.425 
22:35	3.4	3.4	3.4	72	-3.6	0	1	248	0.00	30.425 
22:40	3.7	3.7	3.7	72	-3.3	0	1	248	0.00	30.425 
22:45	4.1	4.1	4.1	72	-2.9	0	1	248	0.00	30.424 
22:50	4.5	4.5	4.5	71	-2.8	0	1	248	0.00	30.424 
22:55	4.7	4.7	4.7	71	-2.6	0	1	248	0.00	30.424 
23:00	4.8	4.8	4.8	70	-2.8	0	0	---	0.00	30.424 
23:05	4.8	4.8	4.8	70	-2.8	0	0	---	0.00	30.424 
23:10	5.0	5.0	5.0	70	-2.6	0	1	248	0.00	30.424 
23:15	5.2	5.2	5.2	70	-2.4	0	2	248	0.00	30.422 
23:20	5.4	5.4	5.4	69	-2.5	0	1	248	0.00	30.422 
23:25	5.6	5.6	5.6	69	-2.3	0	1	248	0.00	30.422 
23:30	5.6	5.6	5.6	69	-2.3	0	1	248	0.00	30.416 
23:35	5.8	5.8	5.8	69	-2.1	0	0	---	0.00	30.416 
23:40	5.8	5.8	5.8	69	-2.1	0	1	248	0.00	30.416 
23:45	6.0	6.0	6.0	68	-2.3	0	1	248	0.00	30.412 
23:50	6.0	6.0	6.0	68	-2.3	0	3	248	0.00	30.412 
23:55	6.0	6.0	6.0	67	-2.6	0	2	248	0.00	30.412 

CoCoRaHS
IN-AL-39
A2 Web Hosting
Creative Commons License
GoDaddy
search engine by freefind advanced

loaded 2018-11-20 09:18:13 • last modified 2010-11-18 10:43:29
Privacy PolicyDisclaimer
• wx.awcolley.com is powered by PmWiki v.2002016 •
• all content (unless otherwise noted) © 2018 A W Colley